Time;durP1;ratioP1;P1;durP2;ratioP2;P2;SDS_P1;SDS_P2;PMS_P1;PMS_P2;Temp;Humidity;BMP_temperature;BMP_pressure;BME280_temperature;BME280_humidity;BME280_pressure;Samples;Min_cycle;Max_cycle;Signal;HPM_P1;HPM_P2
2023/10/09 00:01:46;;;;;;;9.38;3.63;;;;;;;;;;5079134;28;20041;-81
2023/10/09 00:04:15;;;;;;;10.20;4.00;;;;;;;;;;5080259;28;20053;-81
2023/10/09 00:06:42;;;;;;;11.30;3.85;;;;;;;;;;5091177;28;20049;-81
2023/10/09 00:11:56;;;;;;;12.82;4.75;;;;;;;;;;5080263;28;20082;-81
2023/10/09 00:14:22;;;;;;;14.07;4.80;;;;;;;;;;5079435;28;20550;-81
2023/10/09 00:16:49;;;;;;;11.80;5.00;;;;;;;;;;5076737;28;20052;-81
2023/10/09 00:19:30;;;;;;;11.57;4.90;;;;;;;;;;5085992;28;20109;-81
2023/10/09 00:21:58;;;;;;;12.07;5.43;;;;;;;;;;5094862;28;20089;-81
2023/10/09 00:24:24;;;;;;;12.48;5.65;;;;;;;;;;5099977;28;20056;-81
2023/10/09 00:27:11;;;;;;;14.20;6.20;;;;;;;;;;5098171;28;20040;-81
2023/10/09 00:29:44;;;;;;;12.45;5.65;;;;;;;;;;5090830;28;20058;-81
2023/10/09 00:32:16;;;;;;;12.68;5.95;;;;;;;;;;5071855;28;20044;-81
2023/10/09 00:34:43;;;;;;;10.93;5.60;;;;;;;;;;5084620;28;20097;-81
2023/10/09 00:37:23;;;;;;;15.18;6.30;;;;;;;;;;5083808;28;20452;-81
2023/10/09 00:39:56;;;;;;;14.43;5.65;;;;;;;;;;5083163;28;20044;-81
2023/10/09 00:42:30;;;;;;;15.45;6.68;;;;;;;;;;5081823;28;20044;-81
2023/10/09 00:45:09;;;;;;;10.68;6.18;;;;;;;;;;5084043;28;20060;-81
2023/10/09 00:47:35;;;;;;;17.38;6.70;;;;;;;;;;5083654;28;20049;-81
2023/10/09 00:50:10;;;;;;;13.80;6.53;;;;;;;;;;5083099;28;20052;-81
2023/10/09 00:52:43;;;;;;;14.55;7.03;;;;;;;;;;5074648;28;20041;-81
2023/10/09 00:55:13;;;;;;;15.80;7.32;;;;;;;;;;5084385;28;20075;-81
2023/10/09 00:57:41;;;;;;;16.48;8.02;;;;;;;;;;5083626;28;20127;-81
2023/10/09 01:00:26;;;;;;;18.15;8.05;;;;;;;;;;5084188;28;20066;-81
2023/10/09 01:03:10;;;;;;;16.33;8.50;;;;;;;;;;5094612;28;20052;-81
2023/10/09 01:05:36;;;;;;;17.52;8.50;;;;;;;;;;5093384;28;20143;-81
2023/10/09 01:08:15;;;;;;;14.55;7.75;;;;;;;;;;5071188;28;20453;-81
2023/10/09 01:10:53;;;;;;;16.95;8.68;;;;;;;;;;5083712;28;20105;-81
2023/10/09 01:13:19;;;;;;;14.90;8.45;;;;;;;;;;5083403;28;20048;-81
2023/10/09 01:15:45;;;;;;;16.45;9.40;;;;;;;;;;5084165;28;20044;-81
2023/10/09 01:18:12;;;;;;;18.25;9.27;;;;;;;;;;5083135;28;20066;-81
2023/10/09 01:20:41;;;;;;;18.77;9.27;;;;;;;;;;5083270;28;20128;-81
2023/10/09 01:23:11;;;;;;;21.58;9.88;;;;;;;;;;5076196;28;20041;-81
2023/10/09 01:25:56;;;;;;;20.42;10.23;;;;;;;;;;5088342;28;20486;-81
2023/10/09 01:28:26;;;;;;;19.73;9.63;;;;;;;;;;5093418;28;20102;-81
2023/10/09 01:30:52;;;;;;;24.73;11.88;;;;;;;;;;5079870;28;20051;-81
2023/10/09 01:33:26;;;;;;;19.83;11.02;;;;;;;;;;5079861;28;20124;-81
2023/10/09 01:35:58;;;;;;;21.88;11.75;;;;;;;;;;5085874;28;20408;-81
2023/10/09 01:38:40;;;;;;;24.75;12.88;;;;;;;;;;5087168;28;20084;-81
2023/10/09 01:41:09;;;;;;;;;;;;;;;;;;5084855;28;20080;-81
2023/10/09 01:43:35;;;;;;;24.27;12.95;;;;;;;;;;5087176;28;19919;-81
2023/10/09 01:46:01;;;;;;;21.60;12.07;;;;;;;;;;5089743;28;20048;-81
2023/10/09 01:48:32;;;;;;;22.42;13.45;;;;;;;;;;5083649;28;20044;-81
2023/10/09 01:51:00;;;;;;;26.95;14.43;;;;;;;;;;5082463;28;20048;-81
2023/10/09 01:53:29;;;;;;;23.88;14.25;;;;;;;;;;5081509;28;20068;-81
2023/10/09 01:55:56;;;;;;;22.52;12.73;;;;;;;;;;5078500;28;20099;-81
2023/10/09 02:01:01;;;;;;;24.65;13.48;;;;;;;;;;5082282;28;20049;-81
2023/10/09 02:03:29;;;;;;;26.60;14.32;;;;;;;;;;5085628;28;20056;-81
2023/10/09 02:06:03;;;;;;;26.17;14.85;;;;;;;;;;5085631;28;20117;-81
2023/10/09 02:08:35;;;;;;;24.38;14.15;;;;;;;;;;5082840;28;20114;-81
2023/10/09 02:11:02;;;;;;;27.77;14.88;;;;;;;;;;5080433;28;20071;-81
2023/10/09 02:13:34;;;;;;;23.20;14.88;;;;;;;;;;5081102;28;20067;-81
2023/10/09 02:16:28;;;;;;;26.33;15.60;;;;;;;;;;5082589;28;20044;-81
2023/10/09 02:18:56;;;;;;;26.38;15.60;;;;;;;;;;5072418;28;20095;-81
2023/10/09 02:21:33;;;;;;;28.85;15.43;;;;;;;;;;5081149;28;20052;-81
2023/10/09 02:24:03;;;;;;;24.95;15.05;;;;;;;;;;5081055;28;20051;-81
2023/10/09 02:29:15;;;;;;;31.35;17.75;;;;;;;;;;5075793;28;20067;-81
2023/10/09 02:31:44;;;;;;;23.75;14.75;;;;;;;;;;5090775;28;20096;-81
2023/10/09 02:34:11;;;;;;;27.25;15.63;;;;;;;;;;5082477;28;20056;-81
2023/10/09 02:36:43;;;;;;;28.88;16.52;;;;;;;;;;5082630;28;20075;-81
2023/10/09 02:39:22;;;;;;;25.38;14.98;;;;;;;;;;5083626;28;20041;-81
2023/10/09 02:41:55;;;;;;;28.35;16.27;;;;;;;;;;5079966;28;20394;-81
2023/10/09 02:44:26;;;;;;;27.42;16.90;;;;;;;;;;5081841;28;20052;-81
2023/10/09 02:46:57;;;;;;;26.50;15.93;;;;;;;;;;5083570;28;20044;-81
2023/10/09 02:49:29;;;;;;;31.20;17.13;;;;;;;;;;5081515;28;20053;-81
2023/10/09 02:51:55;;;;;;;31.13;16.90;;;;;;;;;;5082308;28;20131;-81
2023/10/09 02:56:56;;;;;;;24.58;15.60;;;;;;;;;;5083059;28;20394;-81
2023/10/09 02:59:22;;;;;;;30.73;17.33;;;;;;;;;;5083406;28;20049;-81
2023/10/09 03:01:48;;;;;;;33.47;17.75;;;;;;;;;;5082114;28;20070;-81
2023/10/09 03:04:15;;;;;;;30.70;16.95;;;;;;;;;;5081386;28;20044;-81
2023/10/09 03:06:50;;;;;;;30.00;17.08;;;;;;;;;;5084829;28;20048;-81
2023/10/09 03:09:17;;;;;;;30.42;17.05;;;;;;;;;;5087950;28;20071;-81
2023/10/09 03:11:53;;;;;;;29.08;17.10;;;;;;;;;;5083462;28;20385;-81
2023/10/09 03:14:20;;;;;;;34.40;18.30;;;;;;;;;;5081976;28;20052;-81
2023/10/09 03:16:48;;;;;;;35.85;19.65;;;;;;;;;;5081354;28;20044;-81
2023/10/09 03:19:15;;;;;;;37.50;19.70;;;;;;;;;;5080680;28;20044;-81
2023/10/09 03:21:41;;;;;;;36.47;19.85;;;;;;;;;;5089192;28;20056;-81
2023/10/09 03:24:11;;;;;;;39.03;21.45;;;;;;;;;;5079573;28;20040;-81
2023/10/09 03:26:37;;;;;;;40.95;19.73;;;;;;;;;;5081663;28;20130;-81
2023/10/09 03:29:09;;;;;;;32.08;19.50;;;;;;;;;;5080646;28;20040;-81
2023/10/09 03:31:42;;;;;;;39.05;21.98;;;;;;;;;;5079830;28;20131;-81
2023/10/09 03:34:10;;;;;;;35.35;20.58;;;;;;;;;;5094008;28;20040;-81
2023/10/09 03:36:39;;;;;;;37.63;21.13;;;;;;;;;;5078377;28;20052;-81
2023/10/09 03:41:51;;;;;;;43.40;23.60;;;;;;;;;;5080232;28;20044;-81
2023/10/09 03:44:20;;;;;;;37.80;22.92;;;;;;;;;;5082034;28;20044;-81
2023/10/09 03:46:46;;;;;;;42.20;23.70;;;;;;;;;;5083305;28;20044;-81
2023/10/09 03:49:15;;;;;;;42.92;24.38;;;;;;;;;;5089471;28;20056;-81
2023/10/09 03:51:42;;;;;;;34.33;20.50;;;;;;;;;;5088942;28;20053;-81
2023/10/09 03:54:09;;;;;;;40.55;24.08;;;;;;;;;;5083376;28;20154;-81
2023/10/09 03:56:35;;;;;;;38.20;23.17;;;;;;;;;;5088037;28;20049;-81
2023/10/09 03:59:04;;;;;;;44.28;25.40;;;;;;;;;;5081879;28;20401;-81
2023/10/09 04:01:37;;;;;;;41.95;25.63;;;;;;;;;;5059194;28;20052;-81
2023/10/09 04:04:10;;;;;;;47.00;25.60;;;;;;;;;;5067968;28;20047;-81
2023/10/09 04:06:37;;;;;;;43.10;27.35;;;;;;;;;;5080356;28;20104;-81
2023/10/09 04:11:46;;;;;;;47.45;26.48;;;;;;;;;;5085600;28;20055;-81
2023/10/09 04:14:26;;;;;;;47.30;28.63;;;;;;;;;;5086535;28;20144;-81
2023/10/09 04:16:52;;;;;;;57.42;30.67;;;;;;;;;;5088180;28;20124;-81
2023/10/09 04:19:22;;;;;;;48.40;26.58;;;;;;;;;;5089367;28;20048;-81
2023/10/09 04:21:58;;;;;;;47.22;28.23;;;;;;;;;;5082838;28;20055;-81
2023/10/09 04:24:24;;;;;;;44.75;26.67;;;;;;;;;;5086113;28;20068;-81
2023/10/09 04:26:56;;;;;;;56.97;30.75;;;;;;;;;;5084608;28;20045;-81
2023/10/09 04:29:38;;;;;;;54.53;31.35;;;;;;;;;;5092817;28;20054;-81
2023/10/09 04:32:07;;;;;;;47.30;26.88;;;;;;;;;;5081680;28;20049;-81
2023/10/09 04:34:41;;;;;;;48.63;28.00;;;;;;;;;;5083040;28;20119;-81
2023/10/09 04:39:47;;;;;;;55.50;31.15;;;;;;;;;;5088607;28;20098;-81
2023/10/09 04:42:26;;;;;;;59.65;31.35;;;;;;;;;;5093156;28;20040;-81
2023/10/09 04:47:37;;;;;;;54.40;31.00;;;;;;;;;;5076205;28;20071;-81
2023/10/09 04:58:00;;;;;;;48.95;28.55;;;;;;;;;;5087793;28;20059;-81
2023/10/09 05:03:09;;;;;;;53.72;30.92;;;;;;;;;;5092031;28;20120;-81
2023/10/09 05:11:34;;;;;;;63.63;33.20;;;;;;;;;;5013700;28;20064;-82
2023/10/09 05:14:11;;;;;;;51.53;28.83;;;;;;;;;;5013657;28;20073;-81
2023/10/09 05:16:37;;;;;;;61.28;33.47;;;;;;;;;;5031592;28;20502;-81
2023/10/09 05:19:06;;;;;;;51.88;30.88;;;;;;;;;;5032590;28;20050;-81
2023/10/09 05:21:44;;;;;;;60.30;32.45;;;;;;;;;;5022984;28;20093;-81
2023/10/09 05:29:19;;;;;;;58.35;32.92;;;;;;;;;;5017114;28;20057;-82
2023/10/09 05:31:57;;;;;;;54.28;30.00;;;;;;;;;;5030181;28;20058;-82
2023/10/09 05:34:36;;;;;;;59.88;30.65;;;;;;;;;;5021028;28;20049;-82
2023/10/09 05:37:24;;;;;;;62.00;32.03;;;;;;;;;;5018557;28;20046;-81
2023/10/09 05:44:55;;;;;;;50.85;28.75;;;;;;;;;;5017504;28;20101;-82
2023/10/09 05:48:06;;;;;;;54.60;29.50;;;;;;;;;;5064727;28;20497;-82
2023/10/09 05:50:36;;;;;;;;;;;;;;;;;;5079491;28;20076;-82
2023/10/09 06:03:53;;;;;;;53.58;29.40;;;;;;;;;;5072966;28;20052;-82
2023/10/09 06:11:46;;;;;;;54.92;28.23;;;;;;;;;;5080182;28;20049;-82
2023/10/09 06:14:24;;;;;;;47.78;26.90;;;;;;;;;;5075158;28;20044;-81
2023/10/09 06:19:27;;;;;;;48.08;28.00;;;;;;;;;;5082911;28;20075;-82
2023/10/09 06:24:38;;;;;;;54.40;27.95;;;;;;;;;;5085179;28;20045;-81
2023/10/09 06:29:34;;;;;;;37.58;23.25;;;;;;;;;;5078269;28;20053;-81
2023/10/09 06:34:51;;;;;;;44.22;24.63;;;;;;;;;;5079340;28;20063;-81
2023/10/09 06:47:53;;;;;;;35.50;21.98;;;;;;;;;;5075200;28;20090;-82
2023/10/09 06:53:19;;;;;;;39.95;20.58;;;;;;;;;;5078252;28;20060;-82
2023/10/09 06:55:51;;;;;;;33.85;19.83;;;;;;;;;;5077753;28;20040;-82
2023/10/09 06:58:27;;;;;;;40.70;20.48;;;;;;;;;;5090352;28;20477;-82
2023/10/09 07:03:51;;;;;;;33.28;17.67;;;;;;;;;;5096918;28;20044;-83
2023/10/09 07:06:24;;;;;;;35.90;18.52;;;;;;;;;;5078592;28;20076;-81
2023/10/09 07:14:07;;;;;;;26.48;15.93;;;;;;;;;;5074360;28;19997;-83
2023/10/09 07:16:56;;;;;;;29.77;15.98;;;;;;;;;;5070426;28;20048;-84
2023/10/09 07:19:57;;;;;;;30.77;16.00;;;;;;;;;;5070691;28;20167;-84
2023/10/09 07:24:56;;;;;;;33.63;16.85;;;;;;;;;;5070753;28;20097;-85
2023/10/09 07:27:48;;;;;;;31.23;16.35;;;;;;;;;;5072665;28;20134;-84
2023/10/09 07:33:05;;;;;;;28.40;15.00;;;;;;;;;;5068865;28;20083;-84
2023/10/09 07:38:14;;;;;;;30.23;14.90;;;;;;;;;;5071047;28;20045;-83
2023/10/09 07:40:56;;;;;;;28.00;13.85;;;;;;;;;;5082774;28;20037;-84
2023/10/09 07:43:27;;;;;;;31.25;15.38;;;;;;;;;;5080000;28;20115;-84
2023/10/09 07:46:29;;;;;;;28.40;13.75;;;;;;;;;;5075431;28;20045;-83
2023/10/09 07:48:48;;;;;;;33.15;13.90;;;;;;;;;;5075653;28;20056;-83
2023/10/09 07:51:14;;;;;;;28.58;14.50;;;;;;;;;;5075695;28;20052;-83
2023/10/09 07:53:44;;;;;;;32.42;14.80;;;;;;;;;;5075939;28;20047;-83
2023/10/09 07:56:13;;;;;;;28.70;13.15;;;;;;;;;;5076235;28;20105;-83
2023/10/09 07:58:48;;;;;;;29.98;13.68;;;;;;;;;;5082484;28;20095;-82
2023/10/09 08:01:34;;;;;;;23.05;12.88;;;;;;;;;;5087118;28;20044;-82
2023/10/09 08:04:11;;;;;;;29.08;14.20;;;;;;;;;;5089014;28;20055;-81
2023/10/09 08:06:42;;;;;;;28.02;13.60;;;;;;;;;;5086146;28;20119;-81
2023/10/09 08:16:47;;;;;;;25.45;13.43;;;;;;;;;;5078443;28;20044;-81
2023/10/09 08:22:37;;;;;;;28.45;14.35;;;;;;;;;;5082717;28;20056;-81
2023/10/09 08:24:58;;;;;;;29.20;13.25;;;;;;;;;;5082808;28;20048;-80
2023/10/09 08:33:20;;;;;;;30.05;14.05;;;;;;;;;;5032083;28;20190;-80
2023/10/09 08:35:48;;;;;;;24.65;12.95;;;;;;;;;;5057008;28;20060;-81
2023/10/09 08:38:17;;;;;;;28.45;13.48;;;;;;;;;;5059535;28;20098;-81
2023/10/09 08:40:45;;;;;;;31.88;13.68;;;;;;;;;;5059752;28;20052;-81
2023/10/09 08:43:18;;;;;;;30.20;13.40;;;;;;;;;;5057249;28;20136;-81
2023/10/09 08:45:53;;;;;;;26.55;13.55;;;;;;;;;;5023047;28;20044;-81
2023/10/09 08:48:26;;;;;;;28.08;13.25;;;;;;;;;;5054437;28;20053;-81
2023/10/09 08:50:55;;;;;;;24.77;12.85;;;;;;;;;;5043292;28;20121;-82
2023/10/09 08:53:27;;;;;;;27.42;13.90;;;;;;;;;;5054693;28;20668;-81
2023/10/09 08:55:55;;;;;;;25.70;13.07;;;;;;;;;;5048400;28;20061;-82
2023/10/09 08:58:28;;;;;;;30.25;13.75;;;;;;;;;;5039532;28;20048;-81
2023/10/09 09:00:55;;;;;;;25.80;13.10;;;;;;;;;;5037010;28;20063;-81
2023/10/09 09:03:25;;;;;;;26.17;12.65;;;;;;;;;;5060005;28;20514;-81
2023/10/09 09:06:02;;;;;;;28.77;13.80;;;;;;;;;;5040642;28;20140;-81
2023/10/09 09:08:29;;;;;;;25.58;13.77;;;;;;;;;;5075594;28;20143;-80
2023/10/09 09:11:11;;;;;;;29.55;13.95;;;;;;;;;;5077871;28;20048;-81
2023/10/09 09:13:39;;;;;;;31.02;13.27;;;;;;;;;;5074971;28;20049;-81
2023/10/09 09:16:07;;;;;;;29.85;13.32;;;;;;;;;;5069607;28;20073;-82
2023/10/09 09:18:49;;;;;;;29.35;13.35;;;;;;;;;;5071161;28;20127;-83
2023/10/09 09:21:27;;;;;;;30.27;11.75;;;;;;;;;;5073532;28;20131;-82
2023/10/09 09:24:14;;;;;;;30.17;12.30;;;;;;;;;;5074388;28;20447;-82
2023/10/09 09:26:46;;;;;;;24.35;12.05;;;;;;;;;;5075516;28;20127;-82
2023/10/09 09:29:13;;;;;;;23.30;11.25;;;;;;;;;;5080283;28;20060;-82
2023/10/09 09:31:51;;;;;;;22.88;12.73;;;;;;;;;;5075072;28;20490;-83
2023/10/09 09:34:18;;;;;;;25.00;10.88;;;;;;;;;;5075013;28;20048;-82
2023/10/09 09:36:54;;;;;;;23.75;11.50;;;;;;;;;;5081107;28;20176;-82
2023/10/09 09:39:29;;;;;;;19.95;10.15;;;;;;;;;;5077217;28;20105;-82
2023/10/09 09:41:57;;;;;;;20.55;10.30;;;;;;;;;;5078512;28;20469;-82
2023/10/09 09:44:30;;;;;;;19.52;10.68;;;;;;;;;;5085986;28;20408;-81
2023/10/09 09:46:56;;;;;;;22.50;11.18;;;;;;;;;;5082886;28;20071;-81
2023/10/09 09:49:31;;;;;;;21.73;11.43;;;;;;;;;;5073199;28;20040;-81
2023/10/09 09:51:58;;;;;;;21.70;11.00;;;;;;;;;;5074667;28;20071;-81
2023/10/09 09:54:24;;;;;;;24.60;12.13;;;;;;;;;;5071350;28;20041;-81
2023/10/09 09:56:52;;;;;;;24.17;12.30;;;;;;;;;;5077331;28;20076;-82
2023/10/09 09:59:22;;;;;;;24.42;12.20;;;;;;;;;;5080763;28;20032;-81
2023/10/09 10:02:06;;;;;;;21.08;11.27;;;;;;;;;;5085527;28;20044;-81
2023/10/09 10:04:35;;;;;;;20.92;11.27;;;;;;;;;;5073526;28;20124;-82
2023/10/09 10:07:09;;;;;;;17.73;10.70;;;;;;;;;;5071978;28;20052;-82
2023/10/09 10:09:39;;;;;;;24.63;11.05;;;;;;;;;;5062348;28;20055;-82
2023/10/09 10:12:11;;;;;;;22.88;11.07;;;;;;;;;;5075664;28;20203;-81
2023/10/09 10:14:52;;;;;;;26.80;11.60;;;;;;;;;;5081893;28;20051;-81
2023/10/09 10:17:21;;;;;;;24.40;11.45;;;;;;;;;;5072354;28;20131;-81
2023/10/09 10:22:47;;;;;;;23.00;11.13;;;;;;;;;;5075056;28;20091;-79
2023/10/09 10:25:42;;;;;;;24.85;11.25;;;;;;;;;;5073528;28;20049;-81
2023/10/09 10:31:03;;;;;;;20.65;9.20;;;;;;;;;;5093514;28;20123;-81
2023/10/09 10:33:49;;;;;;;23.45;9.70;;;;;;;;;;5086114;28;20055;-81
2023/10/09 10:36:22;;;;;;;20.95;9.13;;;;;;;;;;5088964;28;20043;-82
2023/10/09 10:39:04;;;;;;;19.10;9.60;;;;;;;;;;5084345;28;20048;-81
2023/10/09 10:41:50;;;;;;;19.33;9.13;;;;;;;;;;5079313;28;20049;-82
2023/10/09 10:47:01;;;;;;;20.50;9.60;;;;;;;;;;5080594;28;20049;-81
2023/10/09 10:49:36;;;;;;;22.88;10.30;;;;;;;;;;5080459;28;20043;-82
2023/10/09 10:52:17;;;;;;;18.73;9.55;;;;;;;;;;5076871;28;20119;-81
2023/10/09 10:57:19;;;;;;;21.38;9.57;;;;;;;;;;5091952;28;20060;-82
2023/10/09 10:59:46;;;;;;;27.15;10.95;;;;;;;;;;5078332;28;20040;-81
2023/10/09 11:04:45;;;;;;;25.10;10.40;;;;;;;;;;5092068;28;20043;-82
2023/10/09 11:09:59;;;;;;;21.13;9.55;;;;;;;;;;5071048;28;20045;-81
2023/10/09 11:12:38;;;;;;;25.58;11.02;;;;;;;;;;5069106;28;20048;-82
2023/10/09 11:15:18;;;;;;;24.40;10.98;;;;;;;;;;5052077;28;20069;-82
2023/10/09 11:17:45;;;;;;;26.58;11.32;;;;;;;;;;5069944;28;20191;-81
2023/10/09 11:20:32;;;;;;;24.02;11.45;;;;;;;;;;5074326;28;20056;-81
2023/10/09 11:25:39;;;;;;;24.33;10.57;;;;;;;;;;5068573;28;20055;-81
2023/10/09 11:28:27;;;;;;;22.52;10.93;;;;;;;;;;5070891;28;20052;-81
2023/10/09 11:30:55;;;;;;;28.45;10.85;;;;;;;;;;5073253;28;20508;-81
2023/10/09 11:33:21;;;;;;;22.95;11.35;;;;;;;;;;5074240;28;20052;-82
2023/10/09 11:35:57;;;;;;;27.38;11.70;;;;;;;;;;5074118;28;20079;-81
2023/10/09 11:38:26;;;;;;;24.45;11.43;;;;;;;;;;5073329;28;20055;-82
2023/10/09 11:43:24;;;;;;;24.88;10.23;;;;;;;;;;5073812;28;20051;-82
2023/10/09 11:45:56;;;;;;;23.10;10.23;;;;;;;;;;5083888;28;20047;-82
2023/10/09 11:48:33;;;;;;;22.95;10.05;;;;;;;;;;5092265;28;20047;-82
2023/10/09 11:55:54;;;;;;;21.85;10.82;;;;;;;;;;5073840;28;20079;-82
2023/10/09 11:58:24;;;;;;;27.45;11.13;;;;;;;;;;5073120;28;20044;-82
2023/10/09 12:01:03;;;;;;;25.10;10.35;;;;;;;;;;5062115;28;20048;-82
2023/10/09 12:03:29;;;;;;;29.05;10.60;;;;;;;;;;5074086;28;20365;-82
2023/10/09 12:06:11;;;;;;;23.70;10.80;;;;;;;;;;5076859;28;20036;-81
2023/10/09 12:08:40;;;;;;;26.35;11.20;;;;;;;;;;5074278;28;20090;-82
2023/10/09 12:11:09;;;;;;;30.05;11.10;;;;;;;;;;5081059;28;20090;-81
2023/10/09 12:13:38;;;;;;;33.28;11.18;;;;;;;;;;5071618;28;20091;-82
2023/10/09 12:16:08;;;;;;;26.60;10.23;;;;;;;;;;5071610;28;20041;-82
2023/10/09 12:18:39;;;;;;;25.40;10.25;;;;;;;;;;5072897;28;20558;-82
2023/10/09 12:21:06;;;;;;;25.73;10.63;;;;;;;;;;5084757;28;20543;-82
2023/10/09 12:23:35;;;;;;;27.30;10.60;;;;;;;;;;5087913;28;20090;-81
2023/10/09 12:26:02;;;;;;;21.80;10.15;;;;;;;;;;5095745;28;20032;-82
2023/10/09 12:28:29;;;;;;;18.50;8.40;;;;;;;;;;5090317;28;20041;-81
2023/10/09 12:31:01;;;;;;;22.35;8.45;;;;;;;;;;5083207;28;20048;-81
2023/10/09 12:33:30;;;;;;;18.17;7.88;;;;;;;;;;5086786;28;20047;-82
2023/10/09 12:36:00;;;;;;;20.48;7.28;;;;;;;;;;5105115;28;20040;-82
2023/10/09 12:38:33;;;;;;;21.63;7.35;;;;;;;;;;5086457;28;20040;-82
2023/10/09 12:43:51;;;;;;;18.75;7.32;;;;;;;;;;5078169;28;20041;-82
2023/10/09 12:46:19;;;;;;;16.88;7.43;;;;;;;;;;5082983;28;20052;-82
2023/10/09 12:48:48;;;;;;;15.93;7.03;;;;;;;;;;5101499;28;20063;-82
2023/10/09 12:51:17;;;;;;;17.48;6.82;;;;;;;;;;5080506;28;20037;-82
2023/10/09 12:53:44;;;;;;;22.08;7.38;;;;;;;;;;5082328;28;20091;-81
2023/10/09 12:56:11;;;;;;;17.00;7.22;;;;;;;;;;5081351;28;20048;-82
2023/10/09 12:58:52;;;;;;;23.17;7.38;;;;;;;;;;5085870;28;20469;-82
2023/10/09 13:01:19;;;;;;;19.60;5.90;;;;;;;;;;5078042;28;20086;-82
2023/10/09 13:03:49;;;;;;;16.77;6.20;;;;;;;;;;5077537;28;20049;-82
2023/10/09 13:06:23;;;;;;;16.05;5.60;;;;;;;;;;5076679;28;20056;-82
2023/10/09 13:08:51;;;;;;;13.82;5.93;;;;;;;;;;5079054;28;20119;-82
2023/10/09 13:11:18;;;;;;;14.82;4.68;;;;;;;;;;5096316;28;20045;-82
2023/10/09 13:13:50;;;;;;;15.45;4.60;;;;;;;;;;5097925;28;20044;-82
2023/10/09 13:16:23;;;;;;;17.13;4.43;;;;;;;;;;5080742;28;20655;-82
2023/10/09 13:19:05;;;;;;;13.35;4.75;;;;;;;;;;5086052;28;20048;-82
2023/10/09 13:21:31;;;;;;;14.18;4.10;;;;;;;;;;5080997;28;20142;-82
2023/10/09 13:24:00;;;;;;;11.73;4.10;;;;;;;;;;5082998;28;20119;-81
2023/10/09 13:26:35;;;;;;;16.00;4.75;;;;;;;;;;5082216;28;20159;-82
2023/10/09 13:29:02;;;;;;;12.85;4.15;;;;;;;;;;5081365;28;20033;-83
2023/10/09 13:31:31;;;;;;;10.90;3.70;;;;;;;;;;5079951;28;20404;-82
2023/10/09 13:33:59;;;;;;;13.50;4.47;;;;;;;;;;5082118;28;20039;-82
2023/10/09 13:36:33;;;;;;;14.43;3.88;;;;;;;;;;5081899;28;20563;-82
2023/10/09 13:39:19;;;;;;;11.52;3.50;;;;;;;;;;5071821;28;20405;-82
2023/10/09 13:41:46;;;;;;;13.30;3.72;;;;;;;;;;5069465;28;20428;-82
2023/10/09 13:44:12;;;;;;;9.93;3.03;;;;;;;;;;5076411;28;20040;-82
2023/10/09 13:46:41;;;;;;;11.55;3.58;;;;;;;;;;5075456;28;20060;-82
2023/10/09 13:49:13;;;;;;;11.82;3.22;;;;;;;;;;5069482;28;20043;-82
2023/10/09 13:51:44;;;;;;;12.40;3.15;;;;;;;;;;5075072;28;20087;-83
2023/10/09 13:54:21;;;;;;;12.18;3.55;;;;;;;;;;5069192;28;20498;-83
2023/10/09 13:56:53;;;;;;;8.13;3.13;;;;;;;;;;5087698;28;20093;-83
2023/10/09 13:59:25;;;;;;;11.85;3.33;;;;;;;;;;5071425;28;20481;-83
2023/10/09 14:01:51;;;;;;;16.05;3.50;;;;;;;;;;5074012;28;20054;-83
2023/10/09 14:04:20;;;;;;;9.73;2.92;;;;;;;;;;5070606;28;20045;-84
2023/10/09 14:06:47;;;;;;;9.07;2.88;;;;;;;;;;5070861;28;20402;-84
2023/10/09 14:09:27;;;;;;;11.80;3.05;;;;;;;;;;5058605;28;20049;-83
2023/10/09 14:12:06;;;;;;;11.18;3.08;;;;;;;;;;5062729;28;20080;-83
2023/10/09 14:14:40;;;;;;;9.23;2.80;;;;;;;;;;5060593;28;20116;-84
2023/10/09 14:17:11;;;;;;;13.70;3.35;;;;;;;;;;5084327;28;20599;-83
2023/10/09 14:19:38;;;;;;;8.57;3.05;;;;;;;;;;5070364;28;20409;-83
2023/10/09 14:22:05;;;;;;;9.90;3.05;;;;;;;;;;5084542;28;20044;-83
2023/10/09 14:24:32;;;;;;;11.65;2.63;;;;;;;;;;5073683;28;20155;-83
2023/10/09 14:27:03;;;;;;;12.43;2.47;;;;;;;;;;5073413;28;20044;-83
2023/10/09 14:29:30;;;;;;;9.38;2.70;;;;;;;;;;5073361;28;20059;-83
2023/10/09 14:32:02;;;;;;;11.88;3.00;;;;;;;;;;5072564;28;20478;-83
2023/10/09 14:34:32;;;;;;;10.18;2.65;;;;;;;;;;5074395;28;20067;-83
2023/10/09 14:37:00;;;;;;;9.90;2.80;;;;;;;;;;5073418;28;20044;-83
2023/10/09 14:39:26;;;;;;;9.45;2.65;;;;;;;;;;5071624;28;20091;-83
2023/10/09 14:41:57;;;;;;;12.43;3.28;;;;;;;;;;5074378;28;20033;-83
2023/10/09 14:44:27;;;;;;;10.75;2.67;;;;;;;;;;5076573;28;20047;-83
2023/10/09 14:46:55;;;;;;;9.98;2.97;;;;;;;;;;5093026;28;20048;-82
2023/10/09 14:49:21;;;;;;;9.65;2.60;;;;;;;;;;5073215;28;20087;-82
2023/10/09 14:51:48;;;;;;;8.40;2.70;;;;;;;;;;5073618;28;20041;-82
2023/10/09 14:54:17;;;;;;;7.88;2.47;;;;;;;;;;5067198;28;20079;-83
2023/10/09 14:56:45;;;;;;;7.28;2.70;;;;;;;;;;5072022;28;20052;-84
2023/10/09 14:59:11;;;;;;;9.07;2.70;;;;;;;;;;5086738;28;20072;-83
2023/10/09 15:01:41;;;;;;;15.07;3.42;;;;;;;;;;5080698;28;20145;-83
2023/10/09 15:04:10;;;;;;;11.30;3.08;;;;;;;;;;5071716;28;20036;-83
2023/10/09 15:06:38;;;;;;;9.70;2.88;;;;;;;;;;5071749;28;20049;-84
2023/10/09 15:09:21;;;;;;;11.25;3.03;;;;;;;;;;5071619;28;20378;-84
2023/10/09 15:11:48;;;;;;;13.05;2.50;;;;;;;;;;5080393;28;20044;-84
2023/10/09 15:14:14;;;;;;;11.18;2.90;;;;;;;;;;5071835;28;20079;-84
2023/10/09 15:16:42;;;;;;;9.02;2.65;;;;;;;;;;5074128;28;20082;-83
2023/10/09 15:19:10;;;;;;;9.82;2.83;;;;;;;;;;5089968;28;20052;-84
2023/10/09 15:21:45;;;;;;;7.97;2.58;;;;;;;;;;5087322;28;20144;-84
2023/10/09 15:24:15;;;;;;;9.10;3.15;;;;;;;;;;5072300;28;20047;-84
2023/10/09 15:26:51;;;;;;;9.38;2.90;;;;;;;;;;5073615;28;20090;-84
2023/10/09 15:29:19;;;;;;;11.77;3.13;;;;;;;;;;5073155;28;20128;-83
2023/10/09 15:31:50;;;;;;;9.55;3.45;;;;;;;;;;5070161;28;20052;-85
2023/10/09 15:34:18;;;;;;;10.75;2.97;;;;;;;;;;5088131;28;20048;-84
2023/10/09 15:36:46;;;;;;;14.07;3.40;;;;;;;;;;5072854;28;20036;-84
2023/10/09 15:39:13;;;;;;;10.73;2.80;;;;;;;;;;5091062;28;20079;-84
2023/10/09 15:41:42;;;;;;;10.98;3.28;;;;;;;;;;5075200;28;20052;-84
2023/10/09 15:44:08;;;;;;;9.25;2.70;;;;;;;;;;5067995;28;20055;-85
2023/10/09 15:46:34;;;;;;;11.15;2.70;;;;;;;;;;5070568;28;20110;-84
2023/10/09 15:49:01;;;;;;;8.85;2.95;;;;;;;;;;5070745;28;20449;-84
2023/10/09 15:51:30;;;;;;;10.10;2.95;;;;;;;;;;5074017;28;20095;-84
2023/10/09 15:54:01;;;;;;;9.75;2.80;;;;;;;;;;5074276;28;20508;-83
2023/10/09 15:56:27;;;;;;;10.13;2.88;;;;;;;;;;5072197;28;20119;-83
2023/10/09 15:58:53;;;;;;;7.75;2.75;;;;;;;;;;5071880;28;20508;-83
2023/10/09 16:01:20;;;;;;;10.63;3.00;;;;;;;;;;5075203;28;20413;-83
2023/10/09 16:03:50;;;;;;;11.18;3.00;;;;;;;;;;5068107;28;20505;-83
2023/10/09 16:06:16;;;;;;;11.43;3.20;;;;;;;;;;5056732;28;20053;-83
2023/10/09 16:08:46;;;;;;;11.40;3.65;;;;;;;;;;5056314;28;20180;-84
2023/10/09 16:11:17;;;;;;;10.23;2.78;;;;;;;;;;5082401;28;20044;-83
2023/10/09 16:13:43;;;;;;;10.38;3.22;;;;;;;;;;5084526;28;20056;-83
2023/10/09 16:16:09;;;;;;;9.52;3.42;;;;;;;;;;5076538;28;20079;-83
2023/10/09 16:18:37;;;;;;;11.85;2.80;;;;;;;;;;5083473;28;20052;-83
2023/10/09 16:21:05;;;;;;;8.80;2.85;;;;;;;;;;5076204;28;20525;-83
2023/10/09 16:23:31;;;;;;;9.70;2.80;;;;;;;;;;5074719;28;20148;-83
2023/10/09 16:25:59;;;;;;;10.05;2.70;;;;;;;;;;5073537;28;20051;-83
2023/10/09 16:28:26;;;;;;;9.73;2.80;;;;;;;;;;5073621;28;20053;-84
2023/10/09 16:30:53;;;;;;;11.23;2.90;;;;;;;;;;5075317;28;20053;-83
2023/10/09 16:33:19;;;;;;;10.98;3.28;;;;;;;;;;5076682;28;20091;-83
2023/10/09 16:35:46;;;;;;;10.68;3.08;;;;;;;;;;5075385;28;20056;-83
2023/10/09 16:38:13;;;;;;;10.27;3.15;;;;;;;;;;5075827;28;20052;-83
2023/10/09 16:40:51;;;;;;;11.07;3.03;;;;;;;;;;5075973;28;20425;-83
2023/10/09 16:43:18;;;;;;;10.60;2.88;;;;;;;;;;5090985;28;20102;-84
2023/10/09 16:45:45;;;;;;;9.93;2.88;;;;;;;;;;5075058;28;20110;-83
2023/10/09 16:48:15;;;;;;;8.82;2.70;;;;;;;;;;5076177;28;20123;-83
2023/10/09 16:50:46;;;;;;;8.20;2.80;;;;;;;;;;5075643;28;20070;-83
2023/10/09 16:53:12;;;;;;;8.95;3.10;;;;;;;;;;5076846;28;20074;-84
2023/10/09 16:55:43;;;;;;;8.77;2.60;;;;;;;;;;5075405;28;20047;-84
2023/10/09 16:58:09;;;;;;;10.25;2.75;;;;;;;;;;5057098;28;20059;-83
2023/10/09 17:00:36;;;;;;;7.88;2.20;;;;;;;;;;5066518;28;20052;-83
2023/10/09 17:03:06;;;;;;;8.95;2.90;;;;;;;;;;5081003;28;20040;-83
2023/10/09 17:05:33;;;;;;;7.25;2.30;;;;;;;;;;5080205;28;20098;-83
2023/10/09 17:08:10;;;;;;;7.03;2.05;;;;;;;;;;5070317;28;20087;-83
2023/10/09 17:10:44;;;;;;;8.35;2.13;;;;;;;;;;5059157;28;20101;-83
2023/10/09 17:13:11;;;;;;;8.18;2.25;;;;;;;;;;5063003;28;20172;-83
2023/10/09 17:15:37;;;;;;;7.82;2.00;;;;;;;;;;5076444;28;20052;-83
2023/10/09 17:18:04;;;;;;;8.50;1.88;;;;;;;;;;5078117;28;20122;-82
2023/10/09 17:20:30;;;;;;;5.80;1.63;;;;;;;;;;5075978;28;20056;-82